createdAt,value
2022-11-29T00:00:19.944Z,101672.13
2022-11-29T00:02:21.768Z,101673.94
2022-11-29T00:04:23.593Z,101678.72
2022-11-29T00:06:28.275Z,101666.78
2022-11-29T00:08:29.952Z,101662.53
2022-11-29T00:10:31.804Z,101669.13
2022-11-29T00:12:33.780Z,101663.63
2022-11-29T00:14:35.486Z,101671.00
2022-11-29T00:16:37.286Z,101673.78
2022-11-29T00:18:39.061Z,101673.94
2022-11-29T00:20:40.751Z,101670.78
2022-11-29T00:22:42.522Z,101668.44
2022-11-29T00:24:44.729Z,101658.72
2022-11-29T00:26:46.870Z,101671.84
2022-11-29T00:28:48.621Z,101664.66
2022-11-29T00:30:50.390Z,101667.22
2022-11-29T00:32:52.171Z,101657.50
2022-11-29T00:34:54.142Z,101651.28
2022-11-29T00:36:55.919Z,101656.56
2022-11-29T00:38:58.634Z,101661.41
2022-11-29T00:41:00.495Z,101657.09
2022-11-29T00:43:02.412Z,101657.16
2022-11-29T00:45:04.521Z,101650.03
2022-11-29T00:47:06.525Z,101657.09
2022-11-29T00:49:08.545Z,101651.59
2022-11-29T00:51:10.379Z,101657.41
2022-11-29T00:53:12.121Z,101653.25
2022-11-29T00:55:13.979Z,101655.75
2022-11-29T00:57:15.683Z,101661.09
2022-11-29T00:59:17.590Z,101648.66
2022-11-29T01:01:19.345Z,101646.00
2022-11-29T01:03:21.793Z,101651.28
2022-11-29T01:05:23.740Z,101649.34
2022-11-29T01:07:25.688Z,101636.28
2022-11-29T01:09:27.470Z,101653.94
2022-11-29T01:11:29.427Z,101649.19
2022-11-29T01:13:31.504Z,101652.59
2022-11-29T01:15:33.486Z,101644.88
2022-11-29T01:17:36.166Z,101650.09
2022-11-29T01:19:38.894Z,101649.41
2022-11-29T01:21:40.605Z,101645.41
2022-11-29T01:23:43.843Z,101638.94
2022-11-29T01:25:45.527Z,101641.22
2022-11-29T01:27:47.713Z,101640.31
2022-11-29T01:29:49.626Z,101636.47
2022-11-29T01:31:51.440Z,101638.09
2022-11-29T01:33:54.884Z,101640.50
2022-11-29T01:35:56.865Z,101636.13
2022-11-29T01:37:58.562Z,101632.94
2022-11-29T01:40:00.313Z,101633.34
2022-11-29T01:42:02.170Z,101638.03
2022-11-29T01:44:13.022Z,101634.25
2022-11-29T01:46:14.778Z,101636.97
2022-11-29T01:48:18.369Z,101637.72
2022-11-29T01:50:20.354Z,101641.34
2022-11-29T01:52:28.519Z,101645.19
2022-11-29T01:54:31.733Z,101639.00
2022-11-29T01:56:34.747Z,101630.66
2022-11-29T01:58:36.666Z,101638.63
2022-11-29T02:00:38.665Z,101630.66
2022-11-29T02:02:49.452Z,101632.16
2022-11-29T02:04:51.614Z,101630.97
2022-11-29T02:06:53.483Z,101628.88
2022-11-29T02:08:55.632Z,101630.53
2022-11-29T02:11:19.771Z,101627.06
2022-11-29T02:13:27.197Z,101632.03
2022-11-29T02:15:46.722Z,101627.31
2022-11-29T02:18:20.829Z,101624.59
2022-11-29T02:21:03.178Z,101626.06
2022-11-29T02:23:13.784Z,101632.16
2022-11-29T02:25:24.431Z,101625.47
2022-11-29T02:28:01.446Z,101628.97
2022-11-29T02:30:21.470Z,101632.94
2022-11-29T02:32:47.673Z,101632.41
2022-11-29T02:34:58.076Z,101633.66
2022-11-29T02:37:28.243Z,101628.22
2022-11-29T02:39:47.922Z,101633.97
2022-11-29T02:42:07.577Z,101637.31
2022-11-29T02:44:27.903Z,101642.78
2022-11-29T02:46:42.272Z,101631.75
2022-11-29T02:49:02.840Z,101645.16
2022-11-29T02:51:35.327Z,101635.94
2022-11-29T02:53:52.396Z,101645.81
2022-11-29T02:56:17.148Z,101640.44
2022-11-29T02:58:27.909Z,101654.09
2022-11-29T03:00:30.647Z,101643.59
2022-11-29T03:02:51.245Z,101649.13
2022-11-29T03:05:09.285Z,101639.16
2022-11-29T03:07:32.785Z,101651.16
2022-11-29T03:10:04.003Z,101655.00
2022-11-29T03:12:20.537Z,101652.34
2022-11-29T03:14:47.598Z,101648.44
2022-11-29T03:17:22.879Z,101660.56
2022-11-29T03:19:39.832Z,101658.63
2022-11-29T03:21:52.748Z,101656.84
2022-11-29T03:23:58.906Z,101657.50
2022-11-29T03:26:25.632Z,101652.81
2022-11-29T03:28:30.009Z,101659.84
2022-11-29T03:30:35.969Z,101652.06
2022-11-29T03:32:54.480Z,101653.19
2022-11-29T03:35:05.002Z,101654.34
2022-11-29T03:37:15.840Z,101651.03
2022-11-29T03:39:46.749Z,101664.53
2022-11-29T03:42:03.394Z,101656.13
2022-11-29T03:44:17.788Z,101653.56
2022-11-29T03:46:50.476Z,101661.88
2022-11-29T03:48:59.561Z,101613.59
2022-11-29T03:51:17.925Z,101660.44
2022-11-29T03:53:34.487Z,101656.66
2022-11-29T03:55:57.245Z,101658.47
2022-11-29T03:58:11.466Z,101662.09
2022-11-29T04:00:13.958Z,101665.19
2022-11-29T04:02:49.468Z,101667.63
2022-11-29T04:05:19.790Z,101673.91
2022-11-29T04:07:21.489Z,101678.22
2022-11-29T04:09:57.187Z,101671.94
2022-11-29T04:12:35.919Z,101677.28
2022-11-29T04:15:25.919Z,101677.09
2022-11-29T04:17:42.736Z,101680.31
2022-11-29T04:20:05.598Z,101680.38
2022-11-29T04:22:48.899Z,101684.47
2022-11-29T04:24:58.843Z,101676.38
2022-11-29T04:27:39.757Z,101681.59
2022-11-29T04:29:55.925Z,101678.34
2022-11-29T04:32:19.097Z,101676.84
2022-11-29T04:34:38.800Z,101680.97
2022-11-29T04:36:51.802Z,101685.06
2022-11-29T04:39:02.458Z,101692.38
2022-11-29T04:41:19.089Z,101696.06
2022-11-29T04:43:51.855Z,101703.22
2022-11-29T04:46:14.646Z,101699.34
2022-11-29T04:49:01.721Z,101699.84
2022-11-29T04:51:13.200Z,101696.25
2022-11-29T04:53:42.877Z,101698.94
2022-11-29T04:55:50.222Z,101695.72
2022-11-29T04:58:01.559Z,101649.53
2022-11-29T05:00:12.049Z,101691.72
2022-11-29T05:02:32.548Z,101701.44
2022-11-29T05:04:47.048Z,101702.44
2022-11-29T05:06:54.355Z,101701.91
2022-11-29T05:09:18.809Z,101705.84
2022-11-29T05:11:42.121Z,101695.47
2022-11-29T05:13:58.792Z,101707.28
2022-11-29T05:16:24.749Z,101709.69
2022-11-29T05:18:44.770Z,101712.81
2022-11-29T05:21:00.355Z,101712.22
2022-11-29T05:23:05.345Z,101721.75
2022-11-29T05:25:12.696Z,101722.06
2022-11-29T05:27:20.012Z,101721.75
2022-11-29T05:29:43.553Z,101732.53
2022-11-29T05:32:31.497Z,101736.09
2022-11-29T05:34:54.988Z,101728.88
2022-11-29T05:37:16.595Z,101741.69
2022-11-29T05:39:48.968Z,101741.50
2022-11-29T05:42:14.826Z,101741.69
2022-11-29T05:44:39.005Z,101740.03
2022-11-29T05:46:53.537Z,101739.25
2022-11-29T05:49:28.740Z,101747.41
2022-11-29T05:52:23.563Z,101744.94
2022-11-29T05:54:38.020Z,101753.38
2022-11-29T05:56:59.113Z,101752.31
2022-11-29T05:59:07.674Z,101765.06
2022-11-29T06:01:22.211Z,101754.53
2022-11-29T06:04:09.144Z,101763.22
2022-11-29T06:06:35.047Z,101762.53
2022-11-29T06:08:40.410Z,101755.47
2022-11-29T06:10:57.645Z,101767.28
2022-11-29T06:13:14.563Z,101771.28
2022-11-29T06:15:28.147Z,101775.22
2022-11-29T06:17:59.973Z,101782.94
2022-11-29T06:20:20.371Z,101788.47
2022-11-29T06:22:32.138Z,101788.38
2022-11-29T06:24:56.008Z,101793.63
2022-11-29T06:27:12.771Z,101788.63
2022-11-29T06:29:23.037Z,101790.22
2022-11-29T06:31:37.826Z,101790.19
2022-11-29T06:33:51.359Z,101792.16
2022-11-29T06:36:14.429Z,101800.63
2022-11-29T06:38:28.523Z,101794.25
2022-11-29T06:40:30.760Z,101794.84
2022-11-29T06:42:32.530Z,101797.63
2022-11-29T06:44:34.508Z,101800.63
2022-11-29T06:47:41.147Z,101803.28
2022-11-29T06:49:54.556Z,101794.97
2022-11-29T06:52:01.936Z,101802.13
2022-11-29T06:54:39.818Z,101804.34
2022-11-29T06:56:44.946Z,101812.47
2022-11-29T06:58:58.908Z,101812.41
2022-11-29T07:01:00.665Z,101816.34
2022-11-29T07:03:24.274Z,101820.44
2022-11-29T07:05:34.321Z,101818.72
2022-11-29T07:07:36.481Z,101813.75
2022-11-29T07:09:38.410Z,101806.41
2022-11-29T07:11:40.749Z,101806.91
2022-11-29T07:13:42.780Z,101818.53
2022-11-29T07:16:01.814Z,101818.66
2022-11-29T07:18:28.565Z,101817.06
2022-11-29T07:20:30.510Z,101819.88
2022-11-29T07:23:01.484Z,101814.50
2022-11-29T07:25:27.774Z,101813.50
2022-11-29T07:27:58.911Z,101814.34
2022-11-29T07:30:15.727Z,101812.88
2022-11-29T07:32:30.182Z,101815.25
2022-11-29T07:34:51.019Z,101814.66
2022-11-29T07:37:13.223Z,101820.88
2022-11-29T07:39:23.884Z,101818.34
2022-11-29T07:41:35.077Z,101828.63
2022-11-29T07:44:13.868Z,101827.47
2022-11-29T07:46:15.644Z,101824.41
2022-11-29T07:48:18.202Z,101819.94
2022-11-29T07:50:20.608Z,101822.25
2022-11-29T07:52:22.446Z,101821.44
2022-11-29T07:54:24.594Z,101822.44
2022-11-29T07:56:26.329Z,101830.94
2022-11-29T07:58:28.077Z,101831.53
2022-11-29T08:00:30.075Z,101828.72
2022-11-29T08:02:32.380Z,101830.69
2022-11-29T08:04:34.199Z,101828.50
2022-11-29T08:06:36.264Z,101829.97
2022-11-29T08:08:43.676Z,101834.22
2022-11-29T08:10:46.158Z,101832.53
2022-11-29T08:12:50.300Z,101834.84
2022-11-29T08:14:52.022Z,101843.22
2022-11-29T08:16:53.719Z,101830.31
2022-11-29T08:18:56.685Z,101839.56
2022-11-29T08:20:58.424Z,101830.63
2022-11-29T08:23:00.300Z,101847.16
2022-11-29T08:25:02.775Z,101797.69
2022-11-29T08:27:04.513Z,101833.78
2022-11-29T08:29:06.240Z,101844.19
2022-11-29T08:31:11.631Z,101827.97
2022-11-29T08:33:13.343Z,101843.03
2022-11-29T08:35:15.685Z,101841.38
2022-11-29T08:37:17.672Z,101842.47
2022-11-29T08:39:19.349Z,101842.69
2022-11-29T08:41:21.031Z,101835.56
2022-11-29T08:43:23.202Z,101842.03
2022-11-29T08:45:24.955Z,101838.06
2022-11-29T08:47:26.696Z,101827.06
2022-11-29T08:49:28.743Z,101847.69
2022-11-29T08:51:30.423Z,101839.94
2022-11-29T08:53:32.404Z,101843.63
2022-11-29T08:55:40.123Z,101845.91
2022-11-29T08:57:41.854Z,101830.31
2022-11-29T08:59:43.553Z,101850.06
2022-11-29T09:01:45.786Z,101845.69
2022-11-29T09:03:47.506Z,101848.56
2022-11-29T09:05:49.507Z,101853.78
2022-11-29T09:07:51.716Z,101845.16
2022-11-29T09:09:53.484Z,101845.28
2022-11-29T09:11:55.188Z,101846.34
2022-11-29T09:13:59.690Z,101846.50
2022-11-29T09:16:07.212Z,101855.09
2022-11-29T09:18:09.201Z,101841.47
2022-11-29T09:20:11.502Z,101855.00
2022-11-29T09:22:13.223Z,101857.50
2022-11-29T09:24:14.973Z,101849.72
2022-11-29T09:26:18.988Z,101857.38
2022-11-29T09:28:20.682Z,101862.38
2022-11-29T09:30:23.895Z,101852.94
2022-11-29T09:32:26.095Z,101857.38
2022-11-29T09:34:27.851Z,101854.63
2022-11-29T09:36:30.577Z,101856.28
2022-11-29T09:38:33.849Z,101855.53
2022-11-29T09:40:42.491Z,101855.84
2022-11-29T09:43:06.382Z,101853.69
2022-11-29T09:45:15.072Z,101855.09
2022-11-29T09:47:35.140Z,101851.97
2022-11-29T09:49:46.132Z,101850.31
2022-11-29T09:52:38.550Z,101852.81
2022-11-29T09:55:17.354Z,101845.28
2022-11-29T09:57:19.912Z,101848.63
2022-11-29T09:59:29.329Z,101851.41
2022-11-29T10:02:04.655Z,101851.72
2022-11-29T10:04:14.000Z,101853.13
2022-11-29T10:06:28.006Z,101849.59
2022-11-29T10:08:29.522Z,101848.66
2022-11-29T10:10:40.740Z,101851.53
2022-11-29T10:13:15.842Z,101850.31
2022-11-29T10:15:27.210Z,101837.66
2022-11-29T10:17:40.694Z,101849.78
2022-11-29T10:19:51.403Z,101847.03
2022-11-29T10:22:00.794Z,101850.63
2022-11-29T10:24:13.379Z,101848.75
2022-11-29T10:26:15.364Z,101843.53
2022-11-29T10:28:19.978Z,101844.53
2022-11-29T10:30:22.073Z,101843.28
2022-11-29T10:32:25.786Z,101850.16
2022-11-29T10:34:31.301Z,101848.88
2022-11-29T10:37:00.081Z,101843.31
2022-11-29T10:39:14.737Z,101849.91
2022-11-29T10:41:21.104Z,101851.66
2022-11-29T10:43:25.133Z,101828.50
2022-11-29T10:45:56.611Z,101849.41
2022-11-29T10:48:04.001Z,101842.94
2022-11-29T10:50:06.342Z,101848.34
2022-11-29T10:52:20.158Z,101842.38
2022-11-29T10:54:42.449Z,101838.88
2022-11-29T10:56:45.651Z,101834.25
2022-11-29T10:59:24.377Z,101841.69
2022-11-29T11:01:26.376Z,101834.50
2022-11-29T11:03:31.260Z,101839.13
2022-11-29T11:05:33.089Z,101839.81
2022-11-29T11:07:35.911Z,101836.03
2022-11-29T11:09:48.652Z,101846.22
2022-11-29T11:12:03.048Z,101854.50
2022-11-29T11:14:28.030Z,101849.75
2022-11-29T11:16:35.616Z,101852.88
2022-11-29T11:18:39.186Z,101850.13
2022-11-29T11:20:42.281Z,101847.44
2022-11-29T11:22:44.181Z,101846.84
2022-11-29T11:24:46.363Z,101858.88
2022-11-29T11:26:48.457Z,101856.75
2022-11-29T11:28:58.811Z,101853.75
2022-11-29T11:31:04.991Z,101858.72
2022-11-29T11:33:09.399Z,101860.16
2022-11-29T11:35:23.674Z,101857.63
2022-11-29T11:37:31.111Z,101853.94
2022-11-29T11:39:32.792Z,101860.31
2022-11-29T11:41:42.375Z,101859.25
2022-11-29T11:43:59.916Z,101861.41
2022-11-29T11:46:02.044Z,101852.84
2022-11-29T11:48:15.836Z,101855.38
2022-11-29T11:50:40.941Z,101867.03
2022-11-29T11:52:50.896Z,101865.53
2022-11-29T11:54:59.768Z,101860.31
2022-11-29T11:57:01.574Z,101867.28
2022-11-29T11:59:04.212Z,101865.63
2022-11-29T12:01:12.138Z,101862.88
2022-11-29T12:03:26.213Z,101861.31
2022-11-29T12:05:27.815Z,101863.94
2022-11-29T12:08:09.858Z,101858.66
2022-11-29T12:10:20.637Z,101865.09
2022-11-29T12:12:33.204Z,101864.41
2022-11-29T12:14:44.992Z,101860.56
2022-11-29T12:16:50.954Z,101864.84
2022-11-29T12:18:59.420Z,101871.09
2022-11-29T12:21:10.167Z,101863.56
2022-11-29T12:23:11.943Z,101862.59
2022-11-29T12:25:19.470Z,101867.56
2022-11-29T12:27:21.391Z,101866.97
2022-11-29T12:29:26.957Z,101861.22
2022-11-29T12:31:50.573Z,101867.63
2022-11-29T12:34:13.788Z,101865.13
2022-11-29T12:36:41.914Z,101875.03
2022-11-29T12:39:14.321Z,101862.31
2022-11-29T12:41:18.798Z,101875.22
2022-11-29T12:43:30.391Z,101861.47
2022-11-29T12:45:32.321Z,101868.88
2022-11-29T12:48:02.515Z,101862.16
2022-11-29T12:50:39.287Z,101862.41
2022-11-29T12:52:47.398Z,101866.84
2022-11-29T12:55:21.346Z,101862.66
2022-11-29T12:57:45.026Z,101863.31
2022-11-29T13:00:07.586Z,101867.22
2022-11-29T13:02:12.298Z,101873.13
2022-11-29T13:04:23.278Z,101872.22
2022-11-29T13:06:49.593Z,101877.84
2022-11-29T13:09:11.261Z,101870.38
2022-11-29T13:11:19.364Z,101872.53
2022-11-29T13:13:45.794Z,101876.78
2022-11-29T13:16:30.880Z,101875.47
2022-11-29T13:18:39.987Z,101867.75
2022-11-29T13:20:47.478Z,101869.91
2022-11-29T13:22:57.904Z,101879.34
2022-11-29T13:25:03.402Z,101876.16
2022-11-29T13:27:06.656Z,101888.44
2022-11-29T13:29:15.237Z,101881.88
2022-11-29T13:31:22.220Z,101880.59
2022-11-29T13:33:42.083Z,101881.13
2022-11-29T13:35:50.895Z,101885.50
2022-11-29T13:37:57.884Z,101873.38
2022-11-29T13:40:19.063Z,101886.22
2022-11-29T13:42:36.995Z,101888.44
2022-11-29T13:44:47.170Z,101886.59
2022-11-29T13:47:07.391Z,101883.59
2022-11-29T13:49:22.151Z,101888.84
2022-11-29T13:51:28.709Z,101894.84
2022-11-29T13:53:48.513Z,101883.59
2022-11-29T13:55:58.562Z,101892.63
2022-11-29T13:58:19.579Z,101878.41
2022-11-29T14:00:28.743Z,101890.56
2022-11-29T14:02:31.638Z,101888.56
2022-11-29T14:04:37.598Z,101888.25
2022-11-29T14:06:40.736Z,101892.84
2022-11-29T14:09:18.919Z,101887.41
2022-11-29T14:11:31.547Z,101893.00
2022-11-29T14:13:42.455Z,101891.47
2022-11-29T14:15:44.934Z,101893.75
2022-11-29T14:17:58.292Z,101892.69
2022-11-29T14:20:25.100Z,101891.19
2022-11-29T14:22:27.132Z,101897.34
2022-11-29T14:24:34.665Z,101893.34
2022-11-29T14:26:36.446Z,101901.19
2022-11-29T14:28:39.593Z,101892.50
2022-11-29T14:30:44.260Z,101899.88
2022-11-29T14:33:13.486Z,101898.03
2022-11-29T14:35:32.590Z,101892.72
2022-11-29T14:37:52.017Z,101903.19
2022-11-29T14:39:57.725Z,101898.38
2022-11-29T14:42:14.882Z,101903.16
2022-11-29T14:44:28.471Z,101897.91
2022-11-29T14:46:32.674Z,101899.88
2022-11-29T14:48:35.280Z,101906.91
2022-11-29T14:50:47.658Z,101905.19
2022-11-29T14:52:55.591Z,101901.63
2022-11-29T14:55:11.572Z,101908.41
2022-11-29T14:57:47.331Z,101905.09
2022-11-29T14:59:54.034Z,101903.81
2022-11-29T15:01:56.761Z,101912.09
2022-11-29T15:04:05.643Z,101906.47
2022-11-29T15:06:25.087Z,101902.75
2022-11-29T15:08:26.819Z,101918.56
2022-11-29T15:10:33.703Z,101916.16
2022-11-29T15:12:37.844Z,101914.88
2022-11-29T15:14:56.692Z,101915.00
2022-11-29T15:17:04.574Z,101911.28
2022-11-29T15:19:38.735Z,101915.66
2022-11-29T15:22:15.110Z,101917.69
2022-11-29T15:24:17.967Z,101924.31
2022-11-29T15:26:21.171Z,101923.72
2022-11-29T15:28:28.219Z,101924.13
2022-11-29T15:30:31.579Z,101930.34
2022-11-29T15:32:33.609Z,101926.13
2022-11-29T15:34:40.347Z,101936.97
2022-11-29T15:36:43.847Z,101937.25
2022-11-29T15:38:56.062Z,101937.09
2022-11-29T15:40:57.943Z,101943.28
2022-11-29T15:43:34.940Z,101939.41
2022-11-29T15:45:39.418Z,101923.03
2022-11-29T15:47:41.188Z,101939.09
2022-11-29T15:49:43.007Z,101950.22
2022-11-29T15:51:49.811Z,101936.47
2022-11-29T15:54:12.641Z,101949.81
2022-11-29T15:56:22.307Z,101955.31
2022-11-29T15:58:27.685Z,101949.28
2022-11-29T16:00:30.126Z,101950.41
2022-11-29T16:02:34.969Z,101956.38
2022-11-29T16:04:46.303Z,101961.28
2022-11-29T16:06:49.660Z,101957.03
2022-11-29T16:08:52.108Z,101955.47
2022-11-29T16:10:54.430Z,101959.53
2022-11-29T16:13:02.723Z,101963.97
2022-11-29T16:15:05.011Z,101967.28
2022-11-29T16:17:08.251Z,101960.75
2022-11-29T16:19:30.279Z,101966.06
2022-11-29T16:21:32.461Z,101959.28
2022-11-29T16:23:41.318Z,101969.25
2022-11-29T16:26:05.514Z,101970.78
2022-11-29T16:28:12.749Z,101977.25
2022-11-29T16:30:26.616Z,101961.59
2022-11-29T16:32:34.200Z,101963.84
2022-11-29T16:34:36.141Z,101966.63
2022-11-29T16:36:37.905Z,101966.78
2022-11-29T16:38:45.819Z,101960.88
2022-11-29T16:41:21.598Z,101966.28
2022-11-29T16:43:53.544Z,101971.88
2022-11-29T16:46:21.350Z,101974.78
2022-11-29T16:48:23.043Z,101977.34
2022-11-29T16:50:26.899Z,101973.53
2022-11-29T16:52:33.526Z,101973.47
2022-11-29T16:54:35.377Z,101977.28
2022-11-29T16:56:39.068Z,101983.47
2022-11-29T16:59:17.128Z,101981.97
2022-11-29T17:01:25.693Z,101977.59
2022-11-29T17:03:27.469Z,101972.63
2022-11-29T17:05:29.306Z,101977.72
2022-11-29T17:07:35.733Z,101973.47
2022-11-29T17:09:38.784Z,101978.81
2022-11-29T17:11:40.882Z,101978.38
2022-11-29T17:13:42.780Z,101978.94
2022-11-29T17:15:44.595Z,101981.41
2022-11-29T17:17:46.440Z,101980.81
2022-11-29T17:19:48.254Z,101983.31
2022-11-29T17:21:51.346Z,101967.94
2022-11-29T17:23:54.075Z,101980.72
2022-11-29T17:25:57.572Z,101966.38
2022-11-29T17:27:59.336Z,101989.50
2022-11-29T17:30:01.094Z,101985.75
2022-11-29T17:32:02.865Z,101987.69
2022-11-29T17:34:05.221Z,101992.06
2022-11-29T17:36:08.261Z,101984.19
2022-11-29T17:38:10.094Z,101988.50
2022-11-29T17:40:12.512Z,101992.78
2022-11-29T17:42:14.254Z,101989.50
2022-11-29T17:44:16.197Z,101985.09
2022-11-29T17:46:27.484Z,101984.03
2022-11-29T17:48:33.383Z,101992.06
2022-11-29T17:50:37.997Z,101994.63
2022-11-29T17:52:42.296Z,101991.72
2022-11-29T17:54:44.023Z,101992.94
2022-11-29T17:56:45.879Z,101992.13
2022-11-29T17:58:51.719Z,101993.88
2022-11-29T18:00:53.467Z,101993.03
2022-11-29T18:02:55.418Z,101987.66
2022-11-29T18:04:57.415Z,101985.38
2022-11-29T18:06:59.394Z,101989.00
2022-11-29T18:09:01.975Z,101974.78
2022-11-29T18:11:11.930Z,101979.91
2022-11-29T18:13:13.711Z,101987.75
2022-11-29T18:15:15.521Z,101985.75
2022-11-29T18:17:17.237Z,101993.19
2022-11-29T18:19:21.665Z,101991.47
2022-11-29T18:21:23.996Z,101987.56
2022-11-29T18:23:27.844Z,101993.22
2022-11-29T18:25:38.886Z,101989.56
2022-11-29T18:27:41.311Z,101990.53
2022-11-29T18:29:43.082Z,101989.06
2022-11-29T18:31:45.736Z,101976.75
2022-11-29T18:33:49.620Z,101989.63
2022-11-29T18:35:51.671Z,101972.81
2022-11-29T18:38:17.626Z,101989.91
2022-11-29T18:40:15.222Z,101994.00
2022-11-29T18:42:16.999Z,101990.81
2022-11-29T18:44:20.480Z,101988.84
2022-11-29T18:46:22.350Z,101990.91
2022-11-29T18:48:24.131Z,101998.00
2022-11-29T18:50:25.951Z,101990.25
2022-11-29T18:52:27.705Z,101995.97
2022-11-29T18:54:29.476Z,101999.06
2022-11-29T18:56:34.153Z,101991.31
2022-11-29T18:58:36.722Z,101995.03
2022-11-29T19:00:38.450Z,101996.06
2022-11-29T19:02:40.351Z,102002.22
2022-11-29T19:04:42.197Z,102005.34
2022-11-29T19:06:44.837Z,102005.69
2022-11-29T19:08:47.225Z,102013.66
2022-11-29T19:10:48.909Z,102010.56
2022-11-29T19:12:50.628Z,102013.22
2022-11-29T19:14:52.804Z,102010.63
2022-11-29T19:16:54.801Z,102006.47
2022-11-29T19:18:59.451Z,102014.38
2022-11-29T19:21:08.524Z,102016.97
2022-11-29T19:23:10.281Z,102024.72
2022-11-29T19:25:11.972Z,102021.22
2022-11-29T19:27:13.762Z,102015.00
2022-11-29T19:29:16.524Z,102019.50
2022-11-29T19:31:20.330Z,102020.22
2022-11-29T19:33:22.355Z,102013.19
2022-11-29T19:35:24.288Z,102023.78
2022-11-29T19:37:26.019Z,102030.47
2022-11-29T19:39:27.759Z,102028.47
2022-11-29T19:41:32.297Z,102016.78
2022-11-29T19:43:34.050Z,102030.56
2022-11-29T19:45:39.609Z,102034.22
2022-11-29T19:47:41.453Z,102035.75
2022-11-29T19:49:46.563Z,102037.50
2022-11-29T19:51:48.964Z,102039.38
2022-11-29T19:53:55.015Z,102046.16
2022-11-29T19:55:56.744Z,102050.47
2022-11-29T19:57:58.666Z,102050.28
2022-11-29T20:00:00.460Z,102048.91
2022-11-29T20:02:02.245Z,102052.44
2022-11-29T20:04:04.413Z,102058.31
2022-11-29T20:06:06.888Z,102061.09
2022-11-29T20:08:08.588Z,102057.94
2022-11-29T20:10:10.690Z,102060.03
2022-11-29T20:12:12.448Z,102063.84
2022-11-29T20:14:14.265Z,102053.72
2022-11-29T20:16:17.261Z,102062.22
2022-11-29T20:18:18.969Z,102072.63
2022-11-29T20:20:20.712Z,102063.31
2022-11-29T20:22:22.549Z,102069.25
2022-11-29T20:24:24.814Z,102058.47
2022-11-29T20:26:27.715Z,102066.53
2022-11-29T20:28:29.676Z,102060.97
2022-11-29T20:30:31.580Z,102070.75
2022-11-29T20:32:34.979Z,102067.16
2022-11-29T20:34:37.144Z,102068.22
2022-11-29T20:37:00.008Z,102065.47
2022-11-29T20:39:10.964Z,102068.25
2022-11-29T20:41:18.192Z,102057.38
2022-11-29T20:43:34.863Z,102062.41
2022-11-29T20:45:36.854Z,102067.50
2022-11-29T20:47:56.670Z,102076.28
2022-11-29T20:49:58.562Z,102076.09
2022-11-29T20:52:05.341Z,102075.19
2022-11-29T20:54:07.069Z,102075.06
2022-11-29T20:56:10.649Z,102071.00
2022-11-29T20:58:12.169Z,102079.75
2022-11-29T21:00:22.775Z,102087.47
2022-11-29T21:02:24.637Z,102074.19
2022-11-29T21:04:26.471Z,102077.22
2022-11-29T21:06:28.203Z,102069.72
2022-11-29T21:08:30.054Z,102069.97
2022-11-29T21:10:31.826Z,102081.00
2022-11-29T21:12:33.851Z,102073.47
2022-11-29T21:14:36.250Z,102072.81
2022-11-29T21:16:38.273Z,102079.56
2022-11-29T21:18:40.316Z,102082.22
2022-11-29T21:20:43.668Z,102088.41
2022-11-29T21:23:13.699Z,102083.09
2022-11-29T21:25:49.885Z,102088.91
2022-11-29T21:27:54.688Z,102085.00
2022-11-29T21:29:56.782Z,102090.16
2022-11-29T21:31:58.717Z,102086.03
2022-11-29T21:34:00.629Z,102077.16
2022-11-29T21:36:02.475Z,102094.00
2022-11-29T21:38:04.192Z,102089.81
2022-11-29T21:40:08.778Z,102095.34
2022-11-29T21:42:10.701Z,102088.28
2022-11-29T21:44:12.629Z,102089.19
2022-11-29T21:46:14.559Z,102089.41
2022-11-29T21:48:16.329Z,102092.91
2022-11-29T21:50:18.206Z,102090.09
2022-11-29T21:52:22.808Z,102092.47
2022-11-29T21:54:24.916Z,102091.03
2022-11-29T21:56:26.665Z,102088.09
2022-11-29T21:58:33.435Z,102092.66
2022-11-29T22:00:37.606Z,102086.16
2022-11-29T22:02:39.580Z,102093.31
2022-11-29T22:04:41.394Z,102086.97
2022-11-29T22:06:43.367Z,102087.78
2022-11-29T22:08:45.255Z,102091.28
2022-11-29T22:10:46.949Z,102076.09
2022-11-29T22:12:52.233Z,102086.69
2022-11-29T22:14:54.579Z,102089.16
2022-11-29T22:16:58.627Z,102082.88
2022-11-29T22:19:00.310Z,102085.44
2022-11-29T22:21:06.864Z,102088.56
2022-11-29T22:23:08.598Z,102084.81
2022-11-29T22:25:10.486Z,102074.09
2022-11-29T22:27:12.475Z,102091.53
2022-11-29T22:29:14.909Z,102091.94
2022-11-29T22:31:16.692Z,102090.34
2022-11-29T22:33:18.504Z,102091.09
2022-11-29T22:35:20.204Z,102096.56
2022-11-29T22:37:22.081Z,102101.03
2022-11-29T22:39:24.178Z,102096.03
2022-11-29T22:41:25.944Z,102091.72
2022-11-29T22:43:28.896Z,102095.78
2022-11-29T22:45:30.740Z,102098.72
2022-11-29T22:47:32.433Z,102100.53
2022-11-29T22:49:34.280Z,102099.94
2022-11-29T22:51:37.537Z,102095.94
2022-11-29T22:53:41.511Z,102089.81
2022-11-29T22:55:43.257Z,102092.50
2022-11-29T22:57:45.085Z,102088.41
2022-11-29T22:59:46.760Z,102106.34
2022-11-29T23:01:48.507Z,102096.09
2022-11-29T23:03:55.439Z,102098.53
2022-11-29T23:06:02.895Z,102083.19
2022-11-29T23:08:04.754Z,102092.47
2022-11-29T23:10:07.258Z,102094.44
2022-11-29T23:12:08.984Z,102082.19
2022-11-29T23:14:10.844Z,102095.06
2022-11-29T23:16:19.276Z,102090.41
2022-11-29T23:18:21.054Z,102090.66
2022-11-29T23:20:22.746Z,102086.94
2022-11-29T23:22:24.540Z,102085.44
2022-11-29T23:24:26.234Z,102089.97
2022-11-29T23:26:33.905Z,102090.31
2022-11-29T23:28:36.230Z,102088.72
2022-11-29T23:30:37.910Z,102087.88
2022-11-29T23:32:39.889Z,102084.63
2022-11-29T23:34:41.699Z,102090.22
2022-11-29T23:36:47.027Z,102084.91
2022-11-29T23:38:53.066Z,102085.00
2022-11-29T23:40:54.898Z,102085.13
2022-11-29T23:42:56.650Z,102086.06
2022-11-29T23:44:58.403Z,102080.31
2022-11-29T23:47:00.298Z,102089.44
2022-11-29T23:49:02.207Z,102082.16
2022-11-29T23:51:04.109Z,102078.25
2022-11-29T23:53:05.900Z,102082.50
2022-11-29T23:55:07.964Z,102091.28
2022-11-29T23:57:09.740Z,102080.31
2022-11-29T23:59:11.614Z,102075.94
